Latest Weather Observations for Warruwi

IDD60801

Issued at 10:35 am CST Sunday 20 April 2014 (issued every 30 minutes, with the page automatically refreshed every 10 minutes)

About weather observations | Map of weather stations | Latest weather observations for NT | Other Formats
Station Details ID: 014401 Name: WARRUWI AIRPORT Lat: -11.65 Lon: 133.38 Height: 19.2 m
Data from the previous 72 hours. | See also: Recent months at Warruwi
Date/Time
CST
Temp
°C
App
Temp
°C
Dew
Point
Rel
Hum
%
Delta-T
°C
Wind Press
QNH
hPa
Press
MSL
hPa
Rain
since 9 am
mm
Dir
 
Spd
km/h
Gust
km/h
Spd
kts
Gust
kts
20/10:30am 29.6 30.6 23.5 69 4.2 ESE 24 33 13 18 1010.9 1010.7 0.2
20/10:00am 29.2 30.1 23.4 71 4.0 ESE 24 35 13 19 1011.0 - 0.2
20/09:30am 28.4 28.8 23.1 73 3.6 ESE 26 35 14 19 1010.9 1010.7 0.2
20/09:00am 27.9 29.4 23.7 78 2.9 SE 22 33 12 18 1010.6 1010.4 14.8
20/08:30am 27.4 29.1 23.4 79 2.7 SE 20 30 11 16 1010.6 1010.4 14.8
20/08:00am 26.6 28.0 22.9 80 2.5 SE 20 28 11 15 1010.5 - 14.8
20/07:30am 26.2 27.8 22.9 82 2.2 SE 19 26 10 14 1010.2 1010.0 14.8
20/07:00am 25.7 27.3 22.8 84 2.0 SE 19 24 10 13 1009.7 - 14.8
20/06:30am 25.4 27.3 22.7 85 1.8 SE 17 24 9 13 1009.3 1009.1 14.8
20/06:00am 25.0 26.9 22.1 84 1.9 SE 15 24 8 13 1009.0 1008.8 14.8
20/05:30am 25.1 26.5 21.8 82 2.2 SE 17 26 9 14 1009.0 1008.8 14.8
20/05:00am 25.0 26.3 21.7 82 2.2 SE 17 22 9 12 1008.8 - 14.8
20/04:30am 25.0 26.7 21.7 82 2.2 SE 15 20 8 11 1008.6 1008.4 14.8
20/04:00am 25.1 26.8 21.6 81 2.3 SE 15 24 8 13 1008.6 - 14.8
20/03:30am 25.1 27.4 22.0 83 2.1 SE 13 20 7 11 1008.8 1008.6 14.8
20/03:00am 25.1 27.5 22.2 84 1.9 SE 13 17 7 9 1008.9 1008.7 14.8
20/02:30am 24.9 26.9 22.2 85 1.8 SE 15 22 8 12 1008.9 1008.7 14.8
20/02:00am 24.9 28.1 22.4 86 1.7 SSE 9 17 5 9 1009.0 - 14.8
20/01:30am 24.7 27.9 22.4 87 1.5 SSE 9 17 5 9 1009.3 1009.1 14.8
20/01:00am 24.8 28.1 22.5 87 1.5 SSE 9 17 5 9 1009.5 - 14.8
20/12:30am 25.0 27.7 22.1 84 1.9 SE 11 20 6 11 1010.0 1009.8 14.8
20/12:00am 24.9 27.1 21.8 83 2.1 SE 13 17 7 9 1010.2 1010.0 14.8
 
Date/Time
CST
Temp
°C
App
Temp
°C
Dew
Point
Rel
Hum
%
Delta-T
°C
Wind Press
QNH
hPa
Press
MSL
hPa
Rain
since 9 am
mm
Dir
 
Spd
km/h
Gust
km/h
Spd
kts
Gust
kts
19/11:30pm 24.4 27.0 21.9 86 1.7 SE 11 19 6 10 1010.5 1010.3 14.8
19/11:00pm 24.6 27.1 21.7 84 1.9 SSE 11 15 6 8 1011.0 - 14.8
19/10:30pm 24.7 27.0 22.0 85 1.8 SSE 13 17 7 9 1011.2 1011.0 14.8
19/10:00pm 24.9 26.9 22.2 85 1.8 SSE 15 24 8 13 1011.7 - 14.8
19/09:30pm 24.9 27.0 22.4 86 1.7 SE 15 22 8 12 1011.8 1011.6 14.8
19/09:00pm 25.0 26.1 23.1 89 1.3 ESE 22 32 12 17 1011.6 1011.4 14.8
19/08:30pm 24.8 26.0 22.5 87 1.5 ESE 20 30 11 16 1011.5 1011.3 14.6
19/08:00pm 24.7 26.4 23.1 91 1.1 ESE 19 26 10 14 1011.1 - 14.6
19/07:30pm 24.6 25.8 23.2 92 0.9 ESE 22 35 12 19 1010.9 1010.7 14.6
19/07:00pm 24.5 25.6 23.1 92 0.9 ESE 22 35 12 19 1010.7 - 14.6
19/06:30pm 24.0 26.6 22.6 92 0.9 SE 13 20 7 11 1010.7 1010.5 14.2
19/06:00pm 24.0 24.4 22.4 91 1.1 SE 24 35 13 19 1010.3 1010.1 12.6
19/05:30pm 24.5 25.3 23.1 92 0.9 SE 24 35 13 19 1010.1 1009.9 11.4
19/05:02pm 24.7 23.8 23.1 91 1.1 ESE 33 54 18 29 1009.7 - 9.6
19/05:00pm 24.7 23.3 22.9 90 1.2 ESE 35 54 19 29 1009.7 - 9.4
19/04:50pm 26.2 23.4 21.8 77 2.9 ESE 39 46 21 25 1009.5 - 8.2
19/04:30pm 27.9 30.6 24.1 80 2.6 E 17 28 9 15 1009.1 1008.9 8.2
19/04:00pm 27.7 30.5 23.7 79 2.8 E 15 26 8 14 1008.8 - 8.2
19/03:30pm 27.4 30.1 23.4 79 2.7 ENE 15 26 8 14 1008.8 1008.6 8.2
19/03:00pm 27.5 29.6 23.1 77 3.0 E 17 30 9 16 1008.9 1008.7 8.2
19/02:30pm 27.2 30.3 24.1 83 2.1 ENE 15 26 8 14 1009.1 1008.9 8.2
19/02:00pm 26.6 29.6 24.6 89 1.4 ENE 17 30 9 16 1009.5 - 8.2
19/01:30pm 25.2 28.6 24.0 93 0.8 ENE 13 26 7 14 1009.8 1009.6 8.0
19/01:00pm 29.2 32.5 24.5 76 3.3 ENE 15 24 8 13 1009.9 - 0.0
19/12:30pm 29.8 32.5 25.1 76 3.3 E 20 26 11 14 1010.2 1010.0 0.0
19/12:00pm 29.3 31.5 24.2 74 3.5 E 20 30 11 16 1010.7 1010.5 0.0
19/11:30am 30.1 32.1 24.5 72 3.9 E 22 30 12 16 1011.2 1011.0 0.0
19/11:00am 29.4 31.5 24.7 76 3.3 E 22 28 12 15 1011.7 - 0.0
19/10:30am 28.9 30.9 23.6 73 3.7 E 19 30 10 16 1012.0 1011.8 0.0
19/10:00am 28.8 30.6 23.2 71 3.8 E 19 26 10 14 1011.8 - 0.0
19/09:30am 27.8 29.3 22.7 74 3.5 ESE 19 26 10 14 1011.7 1011.5 0.0
19/09:00am 27.3 28.7 22.5 75 3.2 ESE 19 26 10 14 1011.8 1011.6 18.0
19/08:30am 27.3 29.2 22.7 76 3.1 ESE 17 24 9 13 1011.6 1011.4 18.0
19/08:00am 26.8 29.3 23.1 80 2.5 ESE 15 20 8 11 1011.4 - 18.0
19/07:30am 25.7 28.3 22.6 83 2.1 SE 13 19 7 10 1011.3 1011.1 18.0
19/07:00am 25.5 28.6 22.8 85 1.8 ESE 11 17 6 9 1010.9 - 18.0
19/06:30am 25.4 28.1 22.9 86 1.7 ESE 13 19 7 10 1010.8 1010.6 18.0
19/06:00am 25.2 27.5 22.7 86 1.7 ESE 15 20 8 11 1010.6 1010.4 18.0
19/05:30am 25.3 27.7 23.0 87 1.6 SE 15 24 8 13 1010.6 1010.4 18.0
19/05:00am 25.2 27.6 22.9 87 1.6 SE 15 22 8 12 1010.7 - 18.0
19/04:30am 25.2 27.3 23.1 88 1.4 ESE 17 22 9 12 1010.6 1010.4 18.0
19/04:00am 25.1 26.7 22.8 87 1.6 ESE 19 26 10 14 1010.6 - 18.0
19/03:30am 24.9 27.2 22.8 88 1.4 ESE 15 22 8 12 1010.6 1010.4 18.0
19/03:00am 25.0 27.3 22.7 87 1.6 ESE 15 22 8 12 1010.9 1010.7 18.0
19/02:30am 25.3 26.7 22.8 86 1.7 ESE 20 28 11 15 1010.8 1010.6 18.0
19/02:00am 25.4 26.7 22.3 83 2.1 ESE 19 28 10 15 1010.8 - 18.0
19/01:30am 25.1 27.7 22.6 86 1.7 ESE 13 20 7 11 1010.9 1010.7 18.0
19/01:00am 25.1 26.9 22.6 86 1.7 SE 17 22 9 12 1011.1 - 18.0
19/12:30am 25.0 27.4 22.9 88 1.4 SE 15 22 8 12 1011.5 1011.3 18.0
19/12:00am 25.1 27.3 22.6 86 1.7 SE 15 22 8 12 1011.4 1011.2 18.0
 
Date/Time
CST
Temp
°C
App
Temp
°C
Dew
Point
Rel
Hum
%
Delta-T
°C
Wind Press
QNH
hPa
Press
MSL
hPa
Rain
since 9 am
mm
Dir
 
Spd
km/h
Gust
km/h
Spd
kts
Gust
kts
18/11:30pm 25.3 27.5 23.2 88 1.4 SE 17 22 9 12 1011.7 1011.5 18.0
18/11:00pm 25.3 27.6 23.5 90 1.2 SE 17 24 9 13 1011.9 - 18.0
18/10:30pm 25.3 27.7 23.7 91 1.1 SE 17 22 9 12 1012.0 1011.8 18.0
18/10:00pm 25.5 27.7 23.9 91 1.1 SE 19 28 10 15 1012.3 - 18.0
18/09:30pm 25.3 27.6 23.5 90 1.2 SE 17 26 9 14 1012.3 1012.1 18.0
18/09:00pm 25.8 27.7 23.7 88 1.4 ESE 20 32 11 17 1012.4 1012.2 18.0
18/08:30pm 25.3 27.1 23.5 90 1.2 ESE 20 30 11 16 1012.2 1012.0 17.8
18/08:00pm 24.5 24.9 23.1 92 0.9 E 26 35 14 19 1012.0 - 17.0
18/07:30pm 25.2 25.1 23.6 91 1.1 ESE 30 41 16 22 1011.8 1011.6 16.2
18/07:00pm 25.8 26.6 23.8 89 1.4 ESE 26 33 14 18 1011.5 - 15.8
18/06:30pm 25.9 27.2 23.4 86 1.7 ESE 22 32 12 17 1011.3 1011.1 15.8
18/06:00pm 26.2 27.4 23.9 87 1.6 ESE 24 35 13 19 1010.7 1010.5 15.8
18/05:30pm 26.7 28.6 23.8 84 2.0 ESE 20 28 11 15 1010.3 1010.1 15.8
18/05:00pm 26.2 28.9 24.1 88 1.4 E 17 24 9 13 1010.2 - 15.8
18/04:30pm 25.8 28.7 23.8 89 1.4 E 15 20 8 11 1010.0 1009.8 15.8
18/04:00pm 25.4 29.0 24.4 94 0.7 E 13 22 7 12 1009.8 - 15.6
18/03:30pm 25.0 28.9 24.3 96 0.5 ENE 11 19 6 10 1009.6 1009.4 15.4
18/03:00pm 24.8 28.6 24.1 96 0.5 ENE 11 22 6 12 1010.1 1009.9 14.4
18/02:30pm 25.4 28.4 24.0 92 1.0 ENE 15 26 8 14 1010.2 1010.0 1.4
18/02:00pm 27.4 32.2 24.5 84 2.0 NE 7 11 4 6 1010.1 - 0.2
18/01:30pm 26.7 31.5 24.2 86 1.7 NE 6 9 3 5 1010.4 1010.2 0.2
18/01:00pm 26.6 31.4 24.4 88 1.5 NE 7 15 4 8 1010.8 - 0.2
18/12:30pm 26.8 30.4 23.7 83 2.1 NE 11 20 6 11 1011.3 1011.1 0.0
18/12:00pm 28.6 30.4 23.5 74 3.5 E 20 28 11 15 1011.5 1011.3 0.0
18/11:30am 28.7 30.8 23.1 71 3.8 E 17 22 9 12 1011.7 1011.5 0.0
18/11:00am 28.8 31.1 22.8 70 4.1 E 15 20 8 11 1012.3 - 0.0
18/10:30am 28.7 31.5 23.6 74 3.5 ESE 15 20 8 11 1012.0 1011.8 0.0
18/10:00am 28.0 30.7 23.4 76 3.2 SE 15 19 8 10 1012.0 - 0.0
18/09:30am 27.3 29.7 22.9 77 3.0 SE 15 20 8 11 1011.9 1011.7 0.0
18/09:00am 27.3 29.0 23.1 78 2.9 ESE 19 28 10 15 1011.7 1011.5 0.0
18/08:30am 27.3 29.4 23.1 78 2.9 SE 17 26 9 14 1011.7 1011.5 0.0
18/08:00am 27.0 29.0 23.0 79 2.7 ESE 17 24 9 13 1011.5 - 0.0
18/07:30am 26.8 28.9 23.1 80 2.5 ESE 17 24 9 13 1011.1 1010.9 0.0
18/07:00am 26.7 29.1 23.0 80 2.5 SE 15 20 8 11 1010.9 - 0.0
18/06:30am 26.6 29.6 22.7 79 2.6 SE 11 19 6 10 1010.5 1010.3 0.0
18/06:00am 26.6 28.9 22.7 79 2.6 SE 15 20 8 11 1010.3 1010.1 0.0
18/05:30am 26.5 28.9 23.0 81 2.4 SE 15 22 8 12 1009.9 1009.7 0.0
18/05:00am 26.5 28.9 23.0 81 2.4 SE 15 20 8 11 1010.0 - 0.0
18/04:30am 26.5 28.7 23.2 82 2.3 SE 17 26 9 14 1009.8 1009.6 0.0
18/04:00am 26.5 28.7 23.2 82 2.2 SE 17 24 9 13 1010.0 - 0.0
18/03:30am 26.6 29.2 23.3 82 2.3 SSE 15 24 8 13 1010.0 1009.8 0.0
18/03:00am 26.6 29.6 23.3 82 2.3 SE 13 22 7 12 1010.2 1010.0 0.0
18/02:30am 26.7 30.0 23.2 81 2.4 SE 11 19 6 10 1010.5 1010.3 0.0
18/02:00am 26.7 29.7 23.4 82 2.3 SE 13 22 7 12 1010.7 - 0.0
18/01:30am 26.8 29.3 23.1 80 2.5 SE 15 20 8 11 1010.9 1010.7 0.0
18/01:00am 26.9 30.6 23.2 80 2.5 SSE 9 17 5 9 1011.4 - 0.0
18/12:30am 27.0 29.8 23.0 79 2.7 SSE 13 20 7 11 1011.7 1011.5 0.0
18/12:00am 27.1 30.0 23.1 79 2.7 SE 13 22 7 12 1012.1 1011.9 0.0
 
Date/Time
CST
Temp
°C
App
Temp
°C
Dew
Point
Rel
Hum
%
Delta-T
°C
Wind Press
QNH
hPa
Press
MSL
hPa
Rain
since 9 am
mm
Dir
 
Spd
km/h
Gust
km/h
Spd
kts
Gust
kts
17/11:30pm 27.1 29.9 23.6 81 2.4 SE 15 22 8 12 1012.1 1011.9 0.0
17/11:00pm 27.0 29.6 23.3 80 2.5 SE 15 20 8 11 1012.0 - 0.0
17/10:30pm 27.2 29.5 22.8 77 3.0 SE 15 20 8 11 1011.9 1011.7 0.0
17/10:00pm 27.6 31.8 23.4 78 2.9 SSE 7 13 4 7 1011.6 - 0.0
17/09:30pm 27.9 31.7 23.5 77 3.0 SSE 9 15 5 8 1011.2 1011.0 0.0
17/09:00pm 28.3 31.0 23.4 75 3.4 SE 15 19 8 10 1011.3 1011.1 0.0
17/08:30pm 29.0 32.4 22.7 69 4.3 ESE 9 15 5 8 1011.1 1010.9 0.0
17/08:00pm 28.7 32.7 22.7 70 4.1 SE 6 7 3 4 1010.8 - 0.0
17/07:30pm 28.6 32.7 22.3 68 4.3 ENE 4 7 2 4 1010.2 1010.0 0.0
17/07:00pm 28.5 32.6 22.3 69 4.2 ENE 4 6 2 3 1009.8 - 0.0
17/06:30pm 29.0 33.1 22.2 66 4.6 NE 4 6 2 3 1009.7 1009.5 0.0
17/06:00pm 29.5 32.8 21.4 61 5.4 NE 6 11 3 6 1009.2 1009.0 0.0
17/05:30pm 30.1 32.8 20.6 56 6.3 NE 7 11 4 6 1009.1 1008.9 0.0
17/05:00pm 31.0 34.4 20.9 55 6.7 NE 4 7 2 4 1008.8 - 0.0
17/04:30pm 31.7 34.7 20.9 52 7.2 NE 6 9 3 5 1008.8 1008.6 0.0
17/04:00pm 31.5 33.9 20.1 50 7.5 NE 7 11 4 6 1008.4 - 0.0
17/03:30pm 31.7 33.2 19.0 47 8.3 ENE 9 15 5 8 1008.4 1008.2 0.0
17/03:00pm 32.4 34.1 21.0 51 7.7 E 13 17 7 9 1008.8 1008.6 0.0
17/02:30pm 32.2 34.0 19.5 47 8.4 ENE 9 17 5 9 1009.1 1008.9 0.0
17/02:00pm 31.8 33.8 20.7 51 7.4 E 11 17 6 9 1009.4 - 0.0
17/01:30pm 31.9 34.7 22.3 56 6.6 E 11 17 6 9 1009.6 1009.4 0.0
17/01:00pm 31.5 34.3 20.8 53 7.1 E 7 15 4 8 1009.9 - 0.0
17/12:30pm 31.1 35.4 23.7 64 5.1 E 7 13 4 7 1010.2 1010.0 0.0
17/12:00pm 31.0 34.8 23.4 64 5.3 E 9 15 5 8 1010.9 1010.7 0.0
17/11:30am 31.1 34.5 24.0 66 4.9 ESE 13 19 7 10 1011.3 1011.1 0.0
17/11:00am 30.4 33.4 23.3 66 4.9 ESE 13 19 7 10 1011.6 - 0.0

Other Formats:

Comma delimited format used in spreadsheet applications
http://www.bom.gov.au/fwo/IDD60801/IDD60801.94139.axf

JavaScript Object Notation format (JSON) in row-major order
http://www.bom.gov.au/fwo/IDD60801/IDD60801.94139.json